»·PEaware :: N5939V KSMX-KTRM

N5939V :: KSMX-KTRM

FLIGHT INFORMATION

Flight Status: Arrived
Operator: Privately registered:
United States
More flights under this callsign
Pilot: Anonymous 30260 (30260)
Aircraft: SOCATA TBM-900
(TBM9)
More flights by this aircraft type
Origin: KSMX Santa Maria Pub/Capt Hancock
United States
Destination: KTRM Desert Resorts Regl
United States
More flights between these airports :: More routes between these airports
Route: +GMN PMD V386 PSP
File this flight plan on PilotEdge
Remarks:
Altitude:
(Current/Filed)
17,000ft
Speed:
(Current/Filed)
292kts
Departed: 02-Oct-20 10:14 AM
Arrived: 02-Oct-20 11:13 AM
Distance/Time
Traveled:
226nm/0:58
Distance/Time
To Go:
Arrived

Flight Plot

Page will automatically refresh every two minutes.

Flight plan parsing failed; only flown route is shown


Map Options




Map Legend


Flown Route
Filed Route
Departure Airport
Arrival Airport
Navaid (VOR, NDB)
Fix

Horizontal Profiles

Position Reports

Time Latitude Longitude Heading Altitude Ground
Speed
02-Oct-20 09:58 34.890879 -120.450780 88 264ft 0kts
02-Oct-20 09:59 34.890879 -120.450780 88 264ft 0kts
02-Oct-20 10:00 34.890879 -120.450780 88 264ft 0kts
02-Oct-20 10:01 34.890879 -120.450780 88 264ft 0kts
02-Oct-20 10:02 34.890879 -120.450780 88 264ft 0kts
02-Oct-20 10:03 34.890879 -120.450780 88 264ft 0kts
02-Oct-20 10:04 34.890879 -120.450780 88 264ft 0kts
02-Oct-20 10:05 34.890879 -120.450780 88 264ft 0kts
02-Oct-20 10:06 34.890879 -120.450780 88 264ft 0kts
02-Oct-20 10:07 34.890879 -120.450780 88 264ft 0kts
02-Oct-20 10:08 34.890879 -120.450780 88 264ft 0kts
02-Oct-20 10:09 34.890879 -120.450780 88 264ft 0kts
02-Oct-20 10:10 34.891212 -120.451008 2 264ft 7kts
02-Oct-20 10:11 34.891640 -120.447844 90 264ft 8kts
02-Oct-20 10:12 34.892915 -120.445984 317 264ft 13kts
02-Oct-20 10:13 34.911750 -120.468823 311 1141ft 123kts
02-Oct-20 10:14 34.933492 -120.458813 111 3409ft 133kts
02-Oct-20 10:15 34.917171 -120.416923 113 5418ft 142kts
02-Oct-20 10:16 34.905696 -120.370403 92 7570ft 146kts
02-Oct-20 10:17 34.902442 -120.310949 93 8709ft 202kts
02-Oct-20 10:18 34.898170 -120.241357 93 10242ft 206kts
02-Oct-20 10:19 34.893758 -120.170967 93 11748ft 210kts
02-Oct-20 10:20 34.889214 -120.099186 93 13181ft 216kts
02-Oct-20 10:21 34.884451 -120.024757 93 14749ft 221kts
02-Oct-20 10:22 34.879524 -119.948496 93 16127ft 226kts
02-Oct-20 10:23 34.874253 -119.867699 93 17011ft 246kts
02-Oct-20 10:24 34.868220 -119.776183 93 17006ft 276kts
02-Oct-20 10:25 34.861736 -119.679058 93 17001ft 286kts
02-Oct-20 10:26 34.855047 -119.580111 93 17000ft 288kts
02-Oct-20 10:27 34.848053 -119.477917 93 17004ft 289kts
02-Oct-20 10:28 34.840491 -119.368816 93 17018ft 289kts
02-Oct-20 10:29 34.833447 -119.268399 94 17028ft 289kts
02-Oct-20 10:30 34.826490 -119.170403 94 17024ft 289kts
02-Oct-20 10:31 34.819460 -119.072475 94 16883ft 293kts
02-Oct-20 10:32 34.812297 -118.973896 94 16928ft 289kts
02-Oct-20 10:33 34.805216 -118.877317 94 17019ft 283kts
02-Oct-20 10:34 34.787603 -118.784371 103 17106ft 281kts
02-Oct-20 10:35 34.767886 -118.692115 103 17077ft 283kts
02-Oct-20 10:36 34.747879 -118.598945 103 17034ft 284kts
02-Oct-20 10:37 34.727858 -118.506088 103 16996ft 284kts
02-Oct-20 10:38 34.707731 -118.413114 103 16987ft 283kts
02-Oct-20 10:39 34.687592 -118.320453 104 16990ft 283kts
02-Oct-20 10:40 34.672345 -118.250540 104 16993ft 283kts
02-Oct-20 10:41 34.653691 -118.165298 104 16996ft 283kts
02-Oct-20 10:42 34.632973 -118.070889 103 16999ft 283kts
02-Oct-20 10:43 34.623445 -117.972609 95 16995ft 283kts
02-Oct-20 10:44 34.615042 -117.877229 95 16992ft 283kts
02-Oct-20 10:45 34.606592 -117.782120 95 16996ft 283kts
02-Oct-20 10:46 34.597848 -117.684574 95 17007ft 281kts
02-Oct-20 10:47 34.588972 -117.586455 95 17017ft 279kts
02-Oct-20 10:48 34.580206 -117.490413 95 17017ft 278kts
02-Oct-20 10:49 34.571424 -117.395030 95 17017ft 278kts
02-Oct-20 10:50 34.562154 -117.296297 98 17016ft 278kts
02-Oct-20 10:51 34.515099 -117.215665 133 16999ft 280kts
02-Oct-20 10:53 34.454817 -117.141305 133 16940ft 283kts
02-Oct-20 10:54 34.393623 -117.066159 133 16698ft 290kts
02-Oct-20 10:55 34.330971 -116.989380 133 15846ft 300kts
02-Oct-20 10:56 34.270297 -116.915195 132 15043ft 297kts
02-Oct-20 10:57 34.211775 -116.843797 132 15001ft 283kts
02-Oct-20 10:58 34.153423 -116.772742 132 14628ft 289kts
02-Oct-20 10:59 34.091310 -116.697279 132 13569ft 299kts
02-Oct-20 11:00 34.026087 -116.625062 137 12481ft 294kts
02-Oct-20 11:01 33.960218 -116.558676 137 11427ft 294kts
02-Oct-20 11:02 33.894480 -116.492656 138 10381ft 295kts
02-Oct-20 11:03 33.829642 -116.427676 138 9337ft 293kts
02-Oct-20 11:04 33.807893 -116.405909 138 8986ft 292kts
02-Oct-20 11:05 33.744326 -116.342373 139 7956ft 290kts
02-Oct-20 11:06 33.681612 -116.277288 138 6980ft 281kts
02-Oct-20 11:06 33.628040 -116.240543 160 6391ft 226kts
02-Oct-20 11:08 33.555700 -116.225662 175 4290ft 196kts
02-Oct-20 11:09 33.537505 -116.182094 74 2064ft 139kts
02-Oct-20 11:10 33.569076 -116.156514 359 985ft 113kts
02-Oct-20 11:11 33.599064 -116.156396 0 304ft 98kts
02-Oct-20 11:11 33.622166 -116.156409 359 -117ft 67kts
02-Oct-20 11:12 33.633231 -116.156407 359 -111ft 22kts
02-Oct-20 11:14 33.634143 -116.160726 269 -109ft 9kts
02-Oct-20 11:14 33.634993 -116.162171 291 -108ft 7kts
02-Oct-20 11:15 33.634715 -116.162149 89 -108ft 0kts

Navigation Log

Ident Type
Flight plan parsing failed, navigation log unavailable